sensor_id;sensor_type;location;lat;lon;timestamp;P1;durP1;ratioP1;P2;durP2;ratioP2
14776;SDS011;7480;43.124;25.686;2023-11-18T00:01:05;35.57;;;20.67;;
14776;SDS011;7480;43.124;25.686;2023-11-18T00:03:32;35.10;;;22.00;;
14776;SDS011;7480;43.124;25.686;2023-11-18T00:05:59;31.63;;;19.03;;
14776;SDS011;7480;43.124;25.686;2023-11-18T00:08:26;34.67;;;20.93;;
14776;SDS011;7480;43.124;25.686;2023-11-18T00:10:53;32.97;;;20.17;;
14776;SDS011;7480;43.124;25.686;2023-11-18T00:13:20;31.57;;;19.47;;
14776;SDS011;7480;43.124;25.686;2023-11-18T00:15:47;35.93;;;21.63;;
14776;SDS011;7480;43.124;25.686;2023-11-18T00:18:14;35.40;;;21.17;;
14776;SDS011;7480;43.124;25.686;2023-11-18T00:20:42;34.43;;;21.33;;
14776;SDS011;7480;43.124;25.686;2023-11-18T00:23:09;37.60;;;20.70;;
14776;SDS011;7480;43.124;25.686;2023-11-18T00:25:36;29.60;;;16.90;;
14776;SDS011;7480;43.124;25.686;2023-11-18T00:28:06;25.27;;;15.77;;
14776;SDS011;7480;43.124;25.686;2023-11-18T00:30:36;21.40;;;14.90;;
14776;SDS011;7480;43.124;25.686;2023-11-18T00:33:03;18.97;;;12.80;;
14776;SDS011;7480;43.124;25.686;2023-11-18T00:35:30;17.67;;;11.20;;
14776;SDS011;7480;43.124;25.686;2023-11-18T00:38:00;16.40;;;10.63;;
14776;SDS011;7480;43.124;25.686;2023-11-18T00:40:27;11.77;;;8.30;;
14776;SDS011;7480;43.124;25.686;2023-11-18T00:42:56;12.53;;;8.70;;
14776;SDS011;7480;43.124;25.686;2023-11-18T00:45:23;10.23;;;7.43;;
14776;SDS011;7480;43.124;25.686;2023-11-18T00:47:50;12.33;;;7.70;;
14776;SDS011;7480;43.124;25.686;2023-11-18T00:50:20;10.57;;;7.70;;
14776;SDS011;7480;43.124;25.686;2023-11-18T00:52:47;10.93;;;7.70;;
14776;SDS011;7480;43.124;25.686;2023-11-18T00:55:15;10.87;;;6.80;;
14776;SDS011;7480;43.124;25.686;2023-11-18T00:57:44;12.50;;;8.20;;
14776;SDS011;7480;43.124;25.686;2023-11-18T01:00:12;11.17;;;7.73;;
14776;SDS011;7480;43.124;25.686;2023-11-18T01:03:00;12.13;;;7.27;;
14776;SDS011;7480;43.124;25.686;2023-11-18T01:05:27;10.00;;;6.67;;
14776;SDS011;7480;43.124;25.686;2023-11-18T01:07:53;13.93;;;8.77;;
14776;SDS011;7480;43.124;25.686;2023-11-18T01:10:20;11.90;;;7.17;;
14776;SDS011;7480;43.124;25.686;2023-11-18T01:12:47;12.33;;;8.27;;
14776;SDS011;7480;43.124;25.686;2023-11-18T01:15:14;9.57;;;7.17;;
14776;SDS011;7480;43.124;25.686;2023-11-18T01:17:41;13.23;;;8.53;;
14776;SDS011;7480;43.124;25.686;2023-11-18T01:20:08;12.93;;;9.60;;
14776;SDS011;7480;43.124;25.686;2023-11-18T01:22:37;13.00;;;8.57;;
14776;SDS011;7480;43.124;25.686;2023-11-18T01:25:05;15.47;;;10.23;;
14776;SDS011;7480;43.124;25.686;2023-11-18T01:27:32;12.40;;;8.27;;
14776;SDS011;7480;43.124;25.686;2023-11-18T01:30:02;12.80;;;9.47;;
14776;SDS011;7480;43.124;25.686;2023-11-18T01:32:31;10.73;;;8.13;;
14776;SDS011;7480;43.124;25.686;2023-11-18T01:34:58;17.30;;;9.97;;
14776;SDS011;7480;43.124;25.686;2023-11-18T01:37:25;14.50;;;8.20;;
14776;SDS011;7480;43.124;25.686;2023-11-18T01:39:51;14.17;;;9.87;;
14776;SDS011;7480;43.124;25.686;2023-11-18T01:42:18;11.63;;;7.37;;
14776;SDS011;7480;43.124;25.686;2023-11-18T01:44:45;10.70;;;7.40;;
14776;SDS011;7480;43.124;25.686;2023-11-18T01:47:12;12.90;;;9.07;;
14776;SDS011;7480;43.124;25.686;2023-11-18T01:49:39;12.67;;;8.77;;
14776;SDS011;7480;43.124;25.686;2023-11-18T01:52:07;13.50;;;8.37;;
14776;SDS011;7480;43.124;25.686;2023-11-18T01:54:34;12.50;;;8.40;;
14776;SDS011;7480;43.124;25.686;2023-11-18T01:57:04;12.23;;;8.13;;
14776;SDS011;7480;43.124;25.686;2023-11-18T01:59:33;12.50;;;8.77;;
14776;SDS011;7480;43.124;25.686;2023-11-18T02:02:00;14.17;;;9.03;;
14776;SDS011;7480;43.124;25.686;2023-11-18T02:04:28;9.20;;;6.50;;
14776;SDS011;7480;43.124;25.686;2023-11-18T02:06:56;10.70;;;6.63;;
14776;SDS011;7480;43.124;25.686;2023-11-18T02:09:23;11.97;;;7.17;;
14776;SDS011;7480;43.124;25.686;2023-11-18T02:12:18;14.63;;;8.50;;
14776;SDS011;7480;43.124;25.686;2023-11-18T02:14:48;8.43;;;5.63;;
14776;SDS011;7480;43.124;25.686;2023-11-18T02:17:17;10.10;;;6.50;;
14776;SDS011;7480;43.124;25.686;2023-11-18T02:19:45;10.23;;;7.13;;
14776;SDS011;7480;43.124;25.686;2023-11-18T02:22:12;10.80;;;6.60;;
14776;SDS011;7480;43.124;25.686;2023-11-18T02:24:40;9.73;;;6.33;;
14776;SDS011;7480;43.124;25.686;2023-11-18T02:27:08;7.10;;;5.40;;
14776;SDS011;7480;43.124;25.686;2023-11-18T02:29:42;5.77;;;3.83;;
14776;SDS011;7480;43.124;25.686;2023-11-18T02:32:31;7.00;;;4.83;;
14776;SDS011;7480;43.124;25.686;2023-11-18T02:35:02;6.70;;;4.30;;
14776;SDS011;7480;43.124;25.686;2023-11-18T02:37:37;6.90;;;4.43;;
14776;SDS011;7480;43.124;25.686;2023-11-18T02:40:05;7.13;;;4.57;;
14776;SDS011;7480;43.124;25.686;2023-11-18T02:42:41;6.73;;;4.13;;
14776;SDS011;7480;43.124;25.686;2023-11-18T02:45:10;5.47;;;4.10;;
14776;SDS011;7480;43.124;25.686;2023-11-18T02:47:44;9.90;;;4.07;;
14776;SDS011;7480;43.124;25.686;2023-11-18T02:50:11;5.60;;;3.77;;
14776;SDS011;7480;43.124;25.686;2023-11-18T02:52:40;6.17;;;3.87;;
14776;SDS011;7480;43.124;25.686;2023-11-18T02:55:07;5.93;;;4.07;;
14776;SDS011;7480;43.124;25.686;2023-11-18T02:57:35;5.77;;;3.50;;
14776;SDS011;7480;43.124;25.686;2023-11-18T03:00:06;5.87;;;3.87;;
14776;SDS011;7480;43.124;25.686;2023-11-18T03:02:43;5.50;;;3.57;;
14776;SDS011;7480;43.124;25.686;2023-11-18T03:05:10;5.93;;;4.10;;
14776;SDS011;7480;43.124;25.686;2023-11-18T03:07:41;5.83;;;3.70;;
14776;SDS011;7480;43.124;25.686;2023-11-18T03:10:08;5.70;;;3.70;;
14776;SDS011;7480;43.124;25.686;2023-11-18T03:12:47;4.90;;;3.03;;
14776;SDS011;7480;43.124;25.686;2023-11-18T03:15:19;5.43;;;3.40;;
14776;SDS011;7480;43.124;25.686;2023-11-18T03:17:48;6.20;;;3.03;;
14776;SDS011;7480;43.124;25.686;2023-11-18T03:20:17;6.20;;;3.30;;
14776;SDS011;7480;43.124;25.686;2023-11-18T03:22:45;5.07;;;3.03;;
14776;SDS011;7480;43.124;25.686;2023-11-18T03:25:12;4.33;;;2.77;;
14776;SDS011;7480;43.124;25.686;2023-11-18T03:27:39;4.43;;;2.80;;
14776;SDS011;7480;43.124;25.686;2023-11-18T03:30:07;4.90;;;2.80;;
14776;SDS011;7480;43.124;25.686;2023-11-18T03:32:35;4.13;;;2.83;;
14776;SDS011;7480;43.124;25.686;2023-11-18T03:35:02;3.67;;;2.40;;
14776;SDS011;7480;43.124;25.686;2023-11-18T03:37:42;5.43;;;2.63;;
14776;SDS011;7480;43.124;25.686;2023-11-18T03:40:11;5.07;;;2.40;;
14776;SDS011;7480;43.124;25.686;2023-11-18T03:42:39;5.13;;;2.60;;
14776;SDS011;7480;43.124;25.686;2023-11-18T03:45:09;6.00;;;2.67;;
14776;SDS011;7480;43.124;25.686;2023-11-18T03:47:36;3.93;;;2.00;;
14776;SDS011;7480;43.124;25.686;2023-11-18T03:50:03;4.13;;;2.37;;
14776;SDS011;7480;43.124;25.686;2023-11-18T03:52:31;4.17;;;2.17;;
14776;SDS011;7480;43.124;25.686;2023-11-18T03:54:58;3.03;;;1.77;;
14776;SDS011;7480;43.124;25.686;2023-11-18T03:57:25;5.57;;;2.10;;
14776;SDS011;7480;43.124;25.686;2023-11-18T03:59:52;3.60;;;2.00;;
14776;SDS011;7480;43.124;25.686;2023-11-18T04:02:19;2.87;;;1.73;;
14776;SDS011;7480;43.124;25.686;2023-11-18T04:04:46;2.10;;;1.30;;
14776;SDS011;7480;43.124;25.686;2023-11-18T04:07:13;3.83;;;1.70;;
14776;SDS011;7480;43.124;25.686;2023-11-18T04:09:39;2.97;;;1.67;;
14776;SDS011;7480;43.124;25.686;2023-11-18T04:12:08;1.37;;;1.07;;
14776;SDS011;7480;43.124;25.686;2023-11-18T04:14:36;3.37;;;1.57;;
14776;SDS011;7480;43.124;25.686;2023-11-18T04:17:03;2.50;;;1.30;;
14776;SDS011;7480;43.124;25.686;2023-11-18T04:19:30;2.50;;;1.20;;
14776;SDS011;7480;43.124;25.686;2023-11-18T04:21:57;2.47;;;1.17;;
14776;SDS011;7480;43.124;25.686;2023-11-18T04:24:24;1.43;;;1.00;;
14776;SDS011;7480;43.124;25.686;2023-11-18T04:26:51;1.77;;;1.20;;
14776;SDS011;7480;43.124;25.686;2023-11-18T04:29:17;1.57;;;1.00;;
14776;SDS011;7480;43.124;25.686;2023-11-18T04:31:44;1.87;;;1.10;;
14776;SDS011;7480;43.124;25.686;2023-11-18T04:34:11;1.17;;;0.90;;
14776;SDS011;7480;43.124;25.686;2023-11-18T04:36:40;1.87;;;1.10;;
14776;SDS011;7480;43.124;25.686;2023-11-18T04:39:07;1.80;;;1.03;;
14776;SDS011;7480;43.124;25.686;2023-11-18T04:41:34;1.47;;;0.97;;
14776;SDS011;7480;43.124;25.686;2023-11-18T04:44:02;2.17;;;1.20;;
14776;SDS011;7480;43.124;25.686;2023-11-18T04:46:29;3.43;;;1.40;;
14776;SDS011;7480;43.124;25.686;2023-11-18T04:48:57;1.70;;;1.17;;
14776;SDS011;7480;43.124;25.686;2023-11-18T04:51:25;1.60;;;1.10;;
14776;SDS011;7480;43.124;25.686;2023-11-18T04:53:52;2.17;;;1.10;;
14776;SDS011;7480;43.124;25.686;2023-11-18T04:56:18;3.07;;;1.13;;
14776;SDS011;7480;43.124;25.686;2023-11-18T04:58:45;3.20;;;1.40;;
14776;SDS011;7480;43.124;25.686;2023-11-18T05:01:14;1.67;;;1.00;;
14776;SDS011;7480;43.124;25.686;2023-11-18T05:03:41;1.70;;;1.00;;
14776;SDS011;7480;43.124;25.686;2023-11-18T05:06:08;2.17;;;1.10;;
14776;SDS011;7480;43.124;25.686;2023-11-18T05:08:35;1.40;;;0.93;;
14776;SDS011;7480;43.124;25.686;2023-11-18T05:11:03;1.30;;;1.10;;
14776;SDS011;7480;43.124;25.686;2023-11-18T05:13:31;1.83;;;1.43;;
14776;SDS011;7480;43.124;25.686;2023-11-18T05:16:00;3.17;;;1.57;;
14776;SDS011;7480;43.124;25.686;2023-11-18T05:18:27;2.00;;;1.07;;
14776;SDS011;7480;43.124;25.686;2023-11-18T05:20:59;1.23;;;1.03;;
14776;SDS011;7480;43.124;25.686;2023-11-18T05:23:26;2.37;;;1.20;;
14776;SDS011;7480;43.124;25.686;2023-11-18T05:25:55;2.90;;;1.20;;
14776;SDS011;7480;43.124;25.686;2023-11-18T05:28:22;2.00;;;1.00;;
14776;SDS011;7480;43.124;25.686;2023-11-18T05:30:50;2.37;;;1.30;;
14776;SDS011;7480;43.124;25.686;2023-11-18T05:33:18;3.70;;;1.90;;
14776;SDS011;7480;43.124;25.686;2023-11-18T05:35:45;2.53;;;1.50;;
14776;SDS011;7480;43.124;25.686;2023-11-18T05:38:20;1.80;;;1.30;;
14776;SDS011;7480;43.124;25.686;2023-11-18T05:40:52;2.10;;;1.40;;
14776;SDS011;7480;43.124;25.686;2023-11-18T05:43:24;2.73;;;1.40;;
14776;SDS011;7480;43.124;25.686;2023-11-18T05:45:53;2.20;;;1.30;;
14776;SDS011;7480;43.124;25.686;2023-11-18T05:48:38;1.70;;;1.13;;
14776;SDS011;7480;43.124;25.686;2023-11-18T05:51:09;1.77;;;0.93;;
14776;SDS011;7480;43.124;25.686;2023-11-18T05:53:40;2.37;;;1.00;;
14776;SDS011;7480;43.124;25.686;2023-11-18T05:56:10;5.20;;;1.40;;
14776;SDS011;7480;43.124;25.686;2023-11-18T05:58:37;3.70;;;1.83;;
14776;SDS011;7480;43.124;25.686;2023-11-18T06:01:07;2.37;;;1.10;;
14776;SDS011;7480;43.124;25.686;2023-11-18T06:03:34;2.17;;;1.00;;
14776;SDS011;7480;43.124;25.686;2023-11-18T06:06:09;2.17;;;1.23;;
14776;SDS011;7480;43.124;25.686;2023-11-18T06:08:37;2.70;;;1.23;;
14776;SDS011;7480;43.124;25.686;2023-11-18T06:11:10;2.33;;;1.20;;
14776;SDS011;7480;43.124;25.686;2023-11-18T06:13:42;2.87;;;1.30;;
14776;SDS011;7480;43.124;25.686;2023-11-18T06:16:12;1.47;;;0.83;;
14776;SDS011;7480;43.124;25.686;2023-11-18T06:18:43;1.73;;;1.03;;
14776;SDS011;7480;43.124;25.686;2023-11-18T06:21:14;1.07;;;0.83;;
14776;SDS011;7480;43.124;25.686;2023-11-18T06:23:42;3.67;;;1.33;;
14776;SDS011;7480;43.124;25.686;2023-11-18T06:26:09;3.07;;;1.13;;
14776;SDS011;7480;43.124;25.686;2023-11-18T06:28:38;1.83;;;1.00;;
14776;SDS011;7480;43.124;25.686;2023-11-18T06:31:05;2.27;;;1.00;;
14776;SDS011;7480;43.124;25.686;2023-11-18T06:36:06;2.00;;;1.23;;
14776;SDS011;7480;43.124;25.686;2023-11-18T06:38:33;1.87;;;1.20;;
14776;SDS011;7480;43.124;25.686;2023-11-18T06:41:04;1.43;;;0.90;;
14776;SDS011;7480;43.124;25.686;2023-11-18T06:43:35;2.20;;;1.13;;
14776;SDS011;7480;43.124;25.686;2023-11-18T06:46:20;1.53;;;1.23;;
14776;SDS011;7480;43.124;25.686;2023-11-18T06:48:58;1.87;;;1.10;;
14776;SDS011;7480;43.124;25.686;2023-11-18T06:51:26;3.37;;;1.17;;
14776;SDS011;7480;43.124;25.686;2023-11-18T06:53:54;3.17;;;1.33;;
14776;SDS011;7480;43.124;25.686;2023-11-18T06:56:24;2.07;;;1.10;;
14776;SDS011;7480;43.124;25.686;2023-11-18T06:58:51;2.60;;;1.10;;
14776;SDS011;7480;43.124;25.686;2023-11-18T07:01:18;1.70;;;0.90;;
14776;SDS011;7480;43.124;25.686;2023-11-18T07:03:46;2.20;;;1.17;;
14776;SDS011;7480;43.124;25.686;2023-11-18T07:06:18;1.27;;;0.93;;
14776;SDS011;7480;43.124;25.686;2023-11-18T07:08:49;2.30;;;1.10;;
14776;SDS011;7480;43.124;25.686;2023-11-18T07:11:16;1.40;;;0.97;;
14776;SDS011;7480;43.124;25.686;2023-11-18T07:13:43;2.10;;;1.13;;
14776;SDS011;7480;43.124;25.686;2023-11-18T07:16:11;2.47;;;1.13;;
14776;SDS011;7480;43.124;25.686;2023-11-18T07:18:38;2.27;;;1.20;;
14776;SDS011;7480;43.124;25.686;2023-11-18T07:21:05;1.53;;;0.93;;
14776;SDS011;7480;43.124;25.686;2023-11-18T07:23:32;1.90;;;1.07;;
14776;SDS011;7480;43.124;25.686;2023-11-18T07:25:59;1.80;;;1.10;;
14776;SDS011;7480;43.124;25.686;2023-11-18T07:28:27;2.10;;;1.37;;
14776;SDS011;7480;43.124;25.686;2023-11-18T07:30:53;0.87;;;0.70;;
14776;SDS011;7480;43.124;25.686;2023-11-18T07:33:20;1.37;;;1.00;;
14776;SDS011;7480;43.124;25.686;2023-11-18T07:35:47;2.67;;;1.13;;
14776;SDS011;7480;43.124;25.686;2023-11-18T07:38:16;1.90;;;1.17;;
14776;SDS011;7480;43.124;25.686;2023-11-18T07:40:44;1.80;;;1.13;;
14776;SDS011;7480;43.124;25.686;2023-11-18T07:43:16;1.47;;;0.80;;
14776;SDS011;7480;43.124;25.686;2023-11-18T07:45:43;1.93;;;0.90;;
14776;SDS011;7480;43.124;25.686;2023-11-18T07:48:10;0.73;;;0.50;;
14776;SDS011;7480;43.124;25.686;2023-11-18T07:50:43;2.27;;;1.17;;
14776;SDS011;7480;43.124;25.686;2023-11-18T07:53:11;1.90;;;0.87;;
14776;SDS011;7480;43.124;25.686;2023-11-18T07:55:38;1.53;;;0.80;;
14776;SDS011;7480;43.124;25.686;2023-11-18T07:58:07;0.97;;;0.67;;
14776;SDS011;7480;43.124;25.686;2023-11-18T08:00:37;1.70;;;0.87;;
14776;SDS011;7480;43.124;25.686;2023-11-18T08:03:09;1.83;;;1.00;;
14776;SDS011;7480;43.124;25.686;2023-11-18T08:05:41;2.67;;;1.20;;
14776;SDS011;7480;43.124;25.686;2023-11-18T08:08:12;2.00;;;1.03;;
14776;SDS011;7480;43.124;25.686;2023-11-18T08:10:40;3.60;;;1.87;;
14776;SDS011;7480;43.124;25.686;2023-11-18T08:13:08;3.00;;;1.33;;
14776;SDS011;7480;43.124;25.686;2023-11-18T08:15:37;3.50;;;1.43;;
14776;SDS011;7480;43.124;25.686;2023-11-18T08:18:06;3.23;;;1.53;;
14776;SDS011;7480;43.124;25.686;2023-11-18T08:20:33;3.10;;;1.17;;
14776;SDS011;7480;43.124;25.686;2023-11-18T08:23:00;3.30;;;1.47;;
14776;SDS011;7480;43.124;25.686;2023-11-18T08:25:27;4.17;;;1.67;;
14776;SDS011;7480;43.124;25.686;2023-11-18T08:27:53;1.50;;;0.80;;
14776;SDS011;7480;43.124;25.686;2023-11-18T08:30:20;4.73;;;1.33;;
14776;SDS011;7480;43.124;25.686;2023-11-18T08:32:50;2.70;;;1.30;;
14776;SDS011;7480;43.124;25.686;2023-11-18T08:35:16;1.73;;;0.97;;
14776;SDS011;7480;43.124;25.686;2023-11-18T08:37:44;3.40;;;1.37;;
14776;SDS011;7480;43.124;25.686;2023-11-18T08:40:11;2.80;;;1.20;;
14776;SDS011;7480;43.124;25.686;2023-11-18T08:42:45;2.60;;;1.37;;
14776;SDS011;7480;43.124;25.686;2023-11-18T08:45:18;3.23;;;1.50;;
14776;SDS011;7480;43.124;25.686;2023-11-18T08:47:48;2.30;;;1.07;;
14776;SDS011;7480;43.124;25.686;2023-11-18T08:50:15;3.20;;;1.10;;
14776;SDS011;7480;43.124;25.686;2023-11-18T08:52:43;1.80;;;1.07;;
14776;SDS011;7480;43.124;25.686;2023-11-18T08:55:14;1.33;;;0.87;;
14776;SDS011;7480;43.124;25.686;2023-11-18T08:57:47;2.17;;;1.20;;
14776;SDS011;7480;43.124;25.686;2023-11-18T09:00:26;1.63;;;1.10;;
14776;SDS011;7480;43.124;25.686;2023-11-18T09:03:15;2.03;;;1.20;;
14776;SDS011;7480;43.124;25.686;2023-11-18T09:05:52;4.10;;;1.60;;
14776;SDS011;7480;43.124;25.686;2023-11-18T09:11:03;2.30;;;1.73;;
14776;SDS011;7480;43.124;25.686;2023-11-18T09:13:31;5.03;;;1.90;;
14776;SDS011;7480;43.124;25.686;2023-11-18T09:16:02;2.30;;;1.20;;
14776;SDS011;7480;43.124;25.686;2023-11-18T09:18:30;2.70;;;1.40;;
14776;SDS011;7480;43.124;25.686;2023-11-18T09:21:00;5.30;;;2.13;;
14776;SDS011;7480;43.124;25.686;2023-11-18T09:23:29;3.63;;;2.20;;
14776;SDS011;7480;43.124;25.686;2023-11-18T09:25:58;4.30;;;2.20;;
14776;SDS011;7480;43.124;25.686;2023-11-18T09:28:26;2.50;;;1.33;;
14776;SDS011;7480;43.124;25.686;2023-11-18T09:30:56;2.03;;;0.90;;
14776;SDS011;7480;43.124;25.686;2023-11-18T09:33:29;3.33;;;1.33;;
14776;SDS011;7480;43.124;25.686;2023-11-18T09:36:04;3.67;;;1.77;;
14776;SDS011;7480;43.124;25.686;2023-11-18T09:38:36;3.23;;;1.63;;
14776;SDS011;7480;43.124;25.686;2023-11-18T09:41:10;3.30;;;1.63;;
14776;SDS011;7480;43.124;25.686;2023-11-18T09:43:40;3.47;;;2.07;;
14776;SDS011;7480;43.124;25.686;2023-11-18T09:52:01;4.03;;;1.47;;
14776;SDS011;7480;43.124;25.686;2023-11-18T09:57:34;3.47;;;1.60;;
14776;SDS011;7480;43.124;25.686;2023-11-18T10:00:06;3.23;;;1.30;;
14776;SDS011;7480;43.124;25.686;2023-11-18T10:02:53;2.23;;;1.20;;
14776;SDS011;7480;43.124;25.686;2023-11-18T10:05:22;2.10;;;0.90;;
14776;SDS011;7480;43.124;25.686;2023-11-18T10:07:54;3.27;;;1.40;;
14776;SDS011;7480;43.124;25.686;2023-11-18T10:10:20;1.63;;;1.03;;
14776;SDS011;7480;43.124;25.686;2023-11-18T10:12:48;2.87;;;1.30;;
14776;SDS011;7480;43.124;25.686;2023-11-18T10:15:20;2.63;;;1.63;;
14776;SDS011;7480;43.124;25.686;2023-11-18T10:18:06;2.87;;;1.90;;
14776;SDS011;7480;43.124;25.686;2023-11-18T10:23:14;3.73;;;1.50;;
14776;SDS011;7480;43.124;25.686;2023-11-18T10:25:50;3.67;;;1.70;;
14776;SDS011;7480;43.124;25.686;2023-11-18T10:28:30;2.80;;;1.40;;
14776;SDS011;7480;43.124;25.686;2023-11-18T10:31:02;3.73;;;1.03;;
14776;SDS011;7480;43.124;25.686;2023-11-18T10:33:39;2.13;;;1.27;;
14776;SDS011;7480;43.124;25.686;2023-11-18T10:36:19;3.63;;;1.80;;
14776;SDS011;7480;43.124;25.686;2023-11-18T10:38:50;8.27;;;1.97;;
14776;SDS011;7480;43.124;25.686;2023-11-18T10:41:18;2.60;;;1.47;;
14776;SDS011;7480;43.124;25.686;2023-11-18T10:43:45;2.53;;;1.20;;
14776;SDS011;7480;43.124;25.686;2023-11-18T10:46:15;2.63;;;1.50;;
14776;SDS011;7480;43.124;25.686;2023-11-18T10:48:44;4.23;;;1.60;;
14776;SDS011;7480;43.124;25.686;2023-11-18T10:51:14;4.63;;;1.20;;
14776;SDS011;7480;43.124;25.686;2023-11-18T10:53:43;2.20;;;1.17;;
14776;SDS011;7480;43.124;25.686;2023-11-18T10:56:27;2.60;;;1.47;;
14776;SDS011;7480;43.124;25.686;2023-11-18T10:59:04;3.20;;;1.37;;
14776;SDS011;7480;43.124;25.686;2023-11-18T11:01:35;3.43;;;1.30;;
14776;SDS011;7480;43.124;25.686;2023-11-18T11:04:10;4.33;;;1.50;;
14776;SDS011;7480;43.124;25.686;2023-11-18T11:06:41;2.17;;;1.40;;
14776;SDS011;7480;43.124;25.686;2023-11-18T11:09:09;2.13;;;1.30;;
14776;SDS011;7480;43.124;25.686;2023-11-18T11:11:54;4.60;;;2.13;;
14776;SDS011;7480;43.124;25.686;2023-11-18T11:14:32;5.07;;;1.73;;
14776;SDS011;7480;43.124;25.686;2023-11-18T11:17:08;3.30;;;1.23;;
14776;SDS011;7480;43.124;25.686;2023-11-18T11:20:05;3.50;;;2.30;;
14776;SDS011;7480;43.124;25.686;2023-11-18T11:23:08;5.87;;;2.10;;
14776;SDS011;7480;43.124;25.686;2023-11-18T11:28:22;3.30;;;1.87;;
14776;SDS011;7480;43.124;25.686;2023-11-18T11:30:58;2.47;;;1.30;;
14776;SDS011;7480;43.124;25.686;2023-11-18T11:36:11;2.73;;;1.30;;
14776;SDS011;7480;43.124;25.686;2023-11-18T11:38:42;4.33;;;1.67;;
14776;SDS011;7480;43.124;25.686;2023-11-18T11:41:13;4.37;;;1.70;;
14776;SDS011;7480;43.124;25.686;2023-11-18T11:43:48;2.17;;;1.40;;
14776;SDS011;7480;43.124;25.686;2023-11-18T11:46:15;2.57;;;1.43;;
14776;SDS011;7480;43.124;25.686;2023-11-18T11:48:50;6.10;;;2.20;;
14776;SDS011;7480;43.124;25.686;2023-11-18T11:54:12;5.60;;;1.87;;
14776;SDS011;7480;43.124;25.686;2023-11-18T11:56:42;2.70;;;1.50;;
14776;SDS011;7480;43.124;25.686;2023-11-18T12:02:11;2.00;;;1.30;;
14776;SDS011;7480;43.124;25.686;2023-11-18T12:04:49;2.80;;;1.73;;
14776;SDS011;7480;43.124;25.686;2023-11-18T12:07:22;2.73;;;1.40;;
14776;SDS011;7480;43.124;25.686;2023-11-18T12:09:50;3.00;;;1.73;;
14776;SDS011;7480;43.124;25.686;2023-11-18T12:12:20;2.53;;;1.53;;
14776;SDS011;7480;43.124;25.686;2023-11-18T12:14:51;3.60;;;1.60;;
14776;SDS011;7480;43.124;25.686;2023-11-18T12:18:24;2.37;;;1.63;;
14776;SDS011;7480;43.124;25.686;2023-11-18T12:20:42;2.87;;;1.90;;
14776;SDS011;7480;43.124;25.686;2023-11-18T12:23:31;2.80;;;1.30;;
14776;SDS011;7480;43.124;25.686;2023-11-18T12:26:01;2.20;;;1.43;;
14776;SDS011;7480;43.124;25.686;2023-11-18T12:28:30;4.37;;;1.90;;
14776;SDS011;7480;43.124;25.686;2023-11-18T12:31:02;3.57;;;1.70;;
14776;SDS011;7480;43.124;25.686;2023-11-18T12:34:22;2.30;;;1.47;;
14776;SDS011;7480;43.124;25.686;2023-11-18T12:42:36;3.13;;;1.70;;
14776;SDS011;7480;43.124;25.686;2023-11-18T12:45:29;3.17;;;1.90;;
14776;SDS011;7480;43.124;25.686;2023-11-18T12:48:13;2.30;;;1.60;;
14776;SDS011;7480;43.124;25.686;2023-11-18T12:50:41;4.27;;;2.17;;
14776;SDS011;7480;43.124;25.686;2023-11-18T12:53:10;3.93;;;1.70;;
14776;SDS011;7480;43.124;25.686;2023-11-18T12:55:37;2.53;;;1.73;;
14776;SDS011;7480;43.124;25.686;2023-11-18T12:58:06;5.07;;;2.10;;
14776;SDS011;7480;43.124;25.686;2023-11-18T13:00:33;2.80;;;1.93;;
14776;SDS011;7480;43.124;25.686;2023-11-18T13:03:02;3.60;;;1.87;;
14776;SDS011;7480;43.124;25.686;2023-11-18T13:05:29;3.93;;;1.77;;
14776;SDS011;7480;43.124;25.686;2023-11-18T13:07:58;3.17;;;1.97;;
14776;SDS011;7480;43.124;25.686;2023-11-18T13:10:30;3.77;;;2.17;;
14776;SDS011;7480;43.124;25.686;2023-11-18T13:12:57;4.90;;;2.87;;
14776;SDS011;7480;43.124;25.686;2023-11-18T13:15:25;3.10;;;2.20;;
14776;SDS011;7480;43.124;25.686;2023-11-18T13:18:01;4.60;;;2.33;;
14776;SDS011;7480;43.124;25.686;2023-11-18T13:20:36;3.67;;;2.53;;
14776;SDS011;7480;43.124;25.686;2023-11-18T13:23:03;3.73;;;2.93;;
14776;SDS011;7480;43.124;25.686;2023-11-18T13:25:35;3.27;;;2.40;;
14776;SDS011;7480;43.124;25.686;2023-11-18T13:28:07;3.30;;;2.00;;
14776;SDS011;7480;43.124;25.686;2023-11-18T13:30:36;2.70;;;2.20;;
14776;SDS011;7480;43.124;25.686;2023-11-18T13:33:06;3.97;;;2.13;;
14776;SDS011;7480;43.124;25.686;2023-11-18T13:35:34;3.57;;;2.20;;
14776;SDS011;7480;43.124;25.686;2023-11-18T13:38:02;3.77;;;2.40;;
14776;SDS011;7480;43.124;25.686;2023-11-18T13:40:47;4.00;;;2.60;;
14776;SDS011;7480;43.124;25.686;2023-11-18T13:43:14;3.50;;;2.37;;
14776;SDS011;7480;43.124;25.686;2023-11-18T13:45:41;3.20;;;2.37;;
14776;SDS011;7480;43.124;25.686;2023-11-18T13:48:11;4.37;;;1.90;;
14776;SDS011;7480;43.124;25.686;2023-11-18T13:50:40;4.47;;;3.10;;
14776;SDS011;7480;43.124;25.686;2023-11-18T13:53:09;4.17;;;2.57;;
14776;SDS011;7480;43.124;25.686;2023-11-18T13:55:37;4.17;;;2.53;;
14776;SDS011;7480;43.124;25.686;2023-11-18T13:58:05;3.47;;;2.33;;
14776;SDS011;7480;43.124;25.686;2023-11-18T14:00:32;3.67;;;2.17;;
14776;SDS011;7480;43.124;25.686;2023-11-18T14:02:59;4.30;;;2.47;;
14776;SDS011;7480;43.124;25.686;2023-11-18T14:05:26;3.80;;;2.40;;
14776;SDS011;7480;43.124;25.686;2023-11-18T14:07:54;2.37;;;1.60;;
14776;SDS011;7480;43.124;25.686;2023-11-18T14:10:26;2.50;;;1.90;;
14776;SDS011;7480;43.124;25.686;2023-11-18T14:13:02;3.57;;;2.60;;
14776;SDS011;7480;43.124;25.686;2023-11-18T14:15:32;3.30;;;2.27;;
14776;SDS011;7480;43.124;25.686;2023-11-18T14:18:02;3.47;;;2.03;;
14776;SDS011;7480;43.124;25.686;2023-11-18T14:20:29;3.23;;;1.80;;
14776;SDS011;7480;43.124;25.686;2023-11-18T14:22:57;3.57;;;2.30;;
14776;SDS011;7480;43.124;25.686;2023-11-18T14:25:28;4.33;;;1.87;;
14776;SDS011;7480;43.124;25.686;2023-11-18T14:27:55;2.67;;;2.00;;
14776;SDS011;7480;43.124;25.686;2023-11-18T14:30:22;4.73;;;2.40;;
14776;SDS011;7480;43.124;25.686;2023-11-18T14:32:52;4.03;;;2.30;;
14776;SDS011;7480;43.124;25.686;2023-11-18T14:35:19;3.40;;;2.17;;
14776;SDS011;7480;43.124;25.686;2023-11-18T14:37:47;2.50;;;2.10;;
14776;SDS011;7480;43.124;25.686;2023-11-18T14:40:14;29.97;;;14.20;;
14776;SDS011;7480;43.124;25.686;2023-11-18T14:42:47;7.83;;;3.90;;
14776;SDS011;7480;43.124;25.686;2023-11-18T14:45:14;2.50;;;1.90;;
14776;SDS011;7480;43.124;25.686;2023-11-18T14:47:42;7.30;;;4.37;;
14776;SDS011;7480;43.124;25.686;2023-11-18T14:50:14;7.73;;;4.13;;
14776;SDS011;7480;43.124;25.686;2023-11-18T14:52:45;1.83;;;1.60;;
14776;SDS011;7480;43.124;25.686;2023-11-18T14:55:18;3.03;;;2.17;;
14776;SDS011;7480;43.124;25.686;2023-11-18T14:57:45;5.17;;;2.77;;
14776;SDS011;7480;43.124;25.686;2023-11-18T15:00:12;2.27;;;1.93;;
14776;SDS011;7480;43.124;25.686;2023-11-18T15:02:49;3.29;;;2.17;;
14776;SDS011;7480;43.124;25.686;2023-11-18T15:05:19;3.07;;;2.07;;
14776;SDS011;7480;43.124;25.686;2023-11-18T15:07:50;3.57;;;2.00;;
14776;SDS011;7480;43.124;25.686;2023-11-18T15:10:20;4.23;;;2.40;;
14776;SDS011;7480;43.124;25.686;2023-11-18T15:12:48;2.03;;;1.67;;
14776;SDS011;7480;43.124;25.686;2023-11-18T15:15:23;3.43;;;2.17;;
14776;SDS011;7480;43.124;25.686;2023-11-18T15:17:58;2.83;;;2.17;;
14776;SDS011;7480;43.124;25.686;2023-11-18T15:20:26;3.03;;;2.17;;
14776;SDS011;7480;43.124;25.686;2023-11-18T15:22:53;3.40;;;2.30;;
14776;SDS011;7480;43.124;25.686;2023-11-18T15:25:20;4.23;;;3.53;;
14776;SDS011;7480;43.124;25.686;2023-11-18T15:27:47;2.67;;;2.27;;
14776;SDS011;7480;43.124;25.686;2023-11-18T15:30:16;3.13;;;2.07;;
14776;SDS011;7480;43.124;25.686;2023-11-18T15:32:46;2.50;;;2.10;;
14776;SDS011;7480;43.124;25.686;2023-11-18T15:35:13;4.17;;;2.93;;
14776;SDS011;7480;43.124;25.686;2023-11-18T15:37:43;3.93;;;2.30;;